sensor_id;sensor_type;location;lat;lon;timestamp;temperature;humidity
23869;DHT22;12115;47.128;15.422;2023-12-22T00:02:10;3.70;99.90
23869;DHT22;12115;47.128;15.422;2023-12-22T00:04:36;3.70;99.90
23869;DHT22;12115;47.128;15.422;2023-12-22T00:07:03;3.70;99.90
23869;DHT22;12115;47.128;15.422;2023-12-22T00:09:29;3.60;99.90
23869;DHT22;12115;47.128;15.422;2023-12-22T00:11:55;3.60;99.90
23869;DHT22;12115;47.128;15.422;2023-12-22T00:14:21;3.70;99.90
23869;DHT22;12115;47.128;15.422;2023-12-22T00:16:47;3.70;99.90
23869;DHT22;12115;47.128;15.422;2023-12-22T00:19:14;3.60;99.90
23869;DHT22;12115;47.128;15.422;2023-12-22T00:21:40;3.60;99.90
23869;DHT22;12115;47.128;15.422;2023-12-22T00:24:06;3.70;99.90
23869;DHT22;12115;47.128;15.422;2023-12-22T00:26:32;3.70;99.90
23869;DHT22;12115;47.128;15.422;2023-12-22T00:28:59;3.70;99.90
23869;DHT22;12115;47.128;15.422;2023-12-22T00:31:25;3.60;99.90
23869;DHT22;12115;47.128;15.422;2023-12-22T00:33:51;3.60;99.90
23869;DHT22;12115;47.128;15.422;2023-12-22T00:36:17;4.20;99.90
23869;DHT22;12115;47.128;15.422;2023-12-22T00:38:47;4.20;99.90
23869;DHT22;12115;47.128;15.422;2023-12-22T00:41:15;4.30;99.90
23869;DHT22;12115;47.128;15.422;2023-12-22T00:43:43;4.20;99.90
23869;DHT22;12115;47.128;15.422;2023-12-22T00:46:09;4.20;99.90
23869;DHT22;12115;47.128;15.422;2023-12-22T00:48:35;4.30;99.90
23869;DHT22;12115;47.128;15.422;2023-12-22T00:51:01;4.30;99.90
23869;DHT22;12115;47.128;15.422;2023-12-22T00:53:29;4.40;99.90
23869;DHT22;12115;47.128;15.422;2023-12-22T00:55:57;4.40;99.90
23869;DHT22;12115;47.128;15.422;2023-12-22T00:58:23;4.40;99.90
23869;DHT22;12115;47.128;15.422;2023-12-22T01:00:49;4.50;99.90
23869;DHT22;12115;47.128;15.422;2023-12-22T01:03:16;4.50;99.90
23869;DHT22;12115;47.128;15.422;2023-12-22T01:05:42;4.60;99.90
23869;DHT22;12115;47.128;15.422;2023-12-22T01:08:09;4.60;99.90
23869;DHT22;12115;47.128;15.422;2023-12-22T01:10:35;4.60;99.90
23869;DHT22;12115;47.128;15.422;2023-12-22T01:13:01;4.70;99.90
23869;DHT22;12115;47.128;15.422;2023-12-22T01:15:29;4.70;99.90
23869;DHT22;12115;47.128;15.422;2023-12-22T01:17:58;4.70;99.90
23869;DHT22;12115;47.128;15.422;2023-12-22T01:20:30;4.70;99.90
23869;DHT22;12115;47.128;15.422;2023-12-22T01:22:58;4.80;99.90
23869;DHT22;12115;47.128;15.422;2023-12-22T01:25:31;4.80;99.90
23869;DHT22;12115;47.128;15.422;2023-12-22T01:28:00;4.80;99.90
23869;DHT22;12115;47.128;15.422;2023-12-22T01:30:31;4.90;99.90
23869;DHT22;12115;47.128;15.422;2023-12-22T01:33:00;4.90;99.90
23869;DHT22;12115;47.128;15.422;2023-12-22T01:35:29;4.90;99.90
23869;DHT22;12115;47.128;15.422;2023-12-22T01:37:55;4.90;99.90
23869;DHT22;12115;47.128;15.422;2023-12-22T01:40:23;4.90;99.90
23869;DHT22;12115;47.128;15.422;2023-12-22T01:42:50;4.90;99.90
23869;DHT22;12115;47.128;15.422;2023-12-22T01:45:18;4.90;99.90
23869;DHT22;12115;47.128;15.422;2023-12-22T01:47:46;4.90;99.90
23869;DHT22;12115;47.128;15.422;2023-12-22T01:50:15;4.90;99.90
23869;DHT22;12115;47.128;15.422;2023-12-22T01:52:42;4.90;99.90
23869;DHT22;12115;47.128;15.422;2023-12-22T01:55:09;5.00;99.90
23869;DHT22;12115;47.128;15.422;2023-12-22T01:57:36;4.90;99.90
23869;DHT22;12115;47.128;15.422;2023-12-22T02:00:04;5.00;99.90
23869;DHT22;12115;47.128;15.422;2023-12-22T02:02:37;5.00;99.90
23869;DHT22;12115;47.128;15.422;2023-12-22T02:05:07;5.00;99.90
23869;DHT22;12115;47.128;15.422;2023-12-22T02:07:52;5.00;99.90
23869;DHT22;12115;47.128;15.422;2023-12-22T02:10:28;5.10;99.90
23869;DHT22;12115;47.128;15.422;2023-12-22T02:12:58;5.10;99.90
23869;DHT22;12115;47.128;15.422;2023-12-22T02:15:35;5.10;99.90
23869;DHT22;12115;47.128;15.422;2023-12-22T02:18:25;5.10;99.90
23869;DHT22;12115;47.128;15.422;2023-12-22T02:21:11;5.10;99.90
23869;DHT22;12115;47.128;15.422;2023-12-22T02:23:56;5.20;99.90
23869;DHT22;12115;47.128;15.422;2023-12-22T02:26:34;5.20;99.90
23869;DHT22;12115;47.128;15.422;2023-12-22T02:29:08;5.20;99.90
23869;DHT22;12115;47.128;15.422;2023-12-22T02:32:12;5.20;99.90
23869;DHT22;12115;47.128;15.422;2023-12-22T02:35:19;5.20;99.90
23869;DHT22;12115;47.128;15.422;2023-12-22T02:37:49;5.20;99.90
23869;DHT22;12115;47.128;15.422;2023-12-22T02:40:31;5.20;99.90
23869;DHT22;12115;47.128;15.422;2023-12-22T02:43:20;5.20;99.90
23869;DHT22;12115;47.128;15.422;2023-12-22T02:45:55;5.30;99.90
23869;DHT22;12115;47.128;15.422;2023-12-22T02:48:36;5.20;99.90
23869;DHT22;12115;47.128;15.422;2023-12-22T02:51:34;5.30;99.90
23869;DHT22;12115;47.128;15.422;2023-12-22T02:57:57;5.30;99.90
23869;DHT22;12115;47.128;15.422;2023-12-22T03:00:33;5.30;99.90
23869;DHT22;12115;47.128;15.422;2023-12-22T03:03:49;5.20;99.90
23869;DHT22;12115;47.128;15.422;2023-12-22T03:06:28;5.20;99.90
23869;DHT22;12115;47.128;15.422;2023-12-22T03:09:07;5.30;99.90
23869;DHT22;12115;47.128;15.422;2023-12-22T03:12:36;5.20;99.90
23869;DHT22;12115;47.128;15.422;2023-12-22T03:15:04;5.20;99.90
23869;DHT22;12115;47.128;15.422;2023-12-22T03:18:33;5.20;99.90
23869;DHT22;12115;47.128;15.422;2023-12-22T03:21:06;5.20;99.90
23869;DHT22;12115;47.128;15.422;2023-12-22T03:23:53;5.20;99.90
23869;DHT22;12115;47.128;15.422;2023-12-22T03:26:26;5.20;99.90
23869;DHT22;12115;47.128;15.422;2023-12-22T03:29:04;5.20;99.90
23869;DHT22;12115;47.128;15.422;2023-12-22T03:31:37;5.20;99.90
23869;DHT22;12115;47.128;15.422;2023-12-22T03:34:41;5.20;99.90
23869;DHT22;12115;47.128;15.422;2023-12-22T03:37:14;5.20;99.90
23869;DHT22;12115;47.128;15.422;2023-12-22T03:42:41;5.20;99.90
23869;DHT22;12115;47.128;15.422;2023-12-22T03:45:14;5.20;99.90
23869;DHT22;12115;47.128;15.422;2023-12-22T03:47:56;5.20;99.90
23869;DHT22;12115;47.128;15.422;2023-12-22T03:50:30;5.10;99.90
23869;DHT22;12115;47.128;15.422;2023-12-22T03:53:44;5.10;99.90
23869;DHT22;12115;47.128;15.422;2023-12-22T03:56:16;5.20;99.90
23869;DHT22;12115;47.128;15.422;2023-12-22T03:59:02;5.20;99.90
23869;DHT22;12115;47.128;15.422;2023-12-22T04:01:39;5.20;99.90
23869;DHT22;12115;47.128;15.422;2023-12-22T04:04:09;5.10;99.90
23869;DHT22;12115;47.128;15.422;2023-12-22T04:06:39;5.20;99.90
23869;DHT22;12115;47.128;15.422;2023-12-22T04:09:06;5.10;99.90
23869;DHT22;12115;47.128;15.422;2023-12-22T04:11:32;5.10;99.90
23869;DHT22;12115;47.128;15.422;2023-12-22T04:14:08;5.10;99.90
23869;DHT22;12115;47.128;15.422;2023-12-22T04:16:38;5.10;99.90
23869;DHT22;12115;47.128;15.422;2023-12-22T04:19:05;5.20;99.90
23869;DHT22;12115;47.128;15.422;2023-12-22T04:21:34;5.20;99.90
23869;DHT22;12115;47.128;15.422;2023-12-22T04:24:01;5.10;99.90
23869;DHT22;12115;47.128;15.422;2023-12-22T04:26:27;5.10;99.90
23869;DHT22;12115;47.128;15.422;2023-12-22T04:28:53;5.10;99.90
23869;DHT22;12115;47.128;15.422;2023-12-22T04:31:19;5.10;99.90
23869;DHT22;12115;47.128;15.422;2023-12-22T04:33:46;5.10;99.90
23869;DHT22;12115;47.128;15.422;2023-12-22T04:36:12;5.10;99.90
23869;DHT22;12115;47.128;15.422;2023-12-22T04:38:38;5.10;99.90
23869;DHT22;12115;47.128;15.422;2023-12-22T04:41:06;5.00;99.90
23869;DHT22;12115;47.128;15.422;2023-12-22T04:43:32;5.00;99.90
23869;DHT22;12115;47.128;15.422;2023-12-22T04:45:58;5.00;99.90
23869;DHT22;12115;47.128;15.422;2023-12-22T04:48:24;5.00;99.90
23869;DHT22;12115;47.128;15.422;2023-12-22T04:50:51;5.00;99.90
23869;DHT22;12115;47.128;15.422;2023-12-22T04:53:17;5.00;99.90
23869;DHT22;12115;47.128;15.422;2023-12-22T04:55:44;5.00;99.90
23869;DHT22;12115;47.128;15.422;2023-12-22T04:58:10;5.10;99.90
23869;DHT22;12115;47.128;15.422;2023-12-22T05:00:36;5.10;99.90
23869;DHT22;12115;47.128;15.422;2023-12-22T05:03:02;5.00;99.90
23869;DHT22;12115;47.128;15.422;2023-12-22T05:05:29;5.00;99.90
23869;DHT22;12115;47.128;15.422;2023-12-22T05:07:55;5.00;99.90
23869;DHT22;12115;47.128;15.422;2023-12-22T05:10:21;4.90;99.90
23869;DHT22;12115;47.128;15.422;2023-12-22T05:12:48;5.00;99.90
23869;DHT22;12115;47.128;15.422;2023-12-22T05:15:14;4.90;99.90
23869;DHT22;12115;47.128;15.422;2023-12-22T05:17:40;5.00;99.90
23869;DHT22;12115;47.128;15.422;2023-12-22T05:20:06;4.90;99.90
23869;DHT22;12115;47.128;15.422;2023-12-22T05:22:33;4.90;99.90
23869;DHT22;12115;47.128;15.422;2023-12-22T05:25:02;4.90;99.90
23869;DHT22;12115;47.128;15.422;2023-12-22T05:27:29;4.90;99.90
23869;DHT22;12115;47.128;15.422;2023-12-22T05:29:55;4.80;99.90
23869;DHT22;12115;47.128;15.422;2023-12-22T05:32:21;4.80;99.90
23869;DHT22;12115;47.128;15.422;2023-12-22T05:34:47;4.90;99.90
23869;DHT22;12115;47.128;15.422;2023-12-22T05:37:13;4.80;99.90
23869;DHT22;12115;47.128;15.422;2023-12-22T05:39:39;4.80;99.90
23869;DHT22;12115;47.128;15.422;2023-12-22T05:42:06;4.70;99.90
23869;DHT22;12115;47.128;15.422;2023-12-22T05:44:33;4.80;99.90
23869;DHT22;12115;47.128;15.422;2023-12-22T05:46:59;4.80;99.90
23869;DHT22;12115;47.128;15.422;2023-12-22T05:49:26;4.80;99.90
23869;DHT22;12115;47.128;15.422;2023-12-22T05:51:52;4.80;99.90
23869;DHT22;12115;47.128;15.422;2023-12-22T05:54:18;4.80;99.90
23869;DHT22;12115;47.128;15.422;2023-12-22T05:56:45;4.70;99.90
23869;DHT22;12115;47.128;15.422;2023-12-22T05:59:11;4.80;99.90
23869;DHT22;12115;47.128;15.422;2023-12-22T06:01:37;4.70;99.90
23869;DHT22;12115;47.128;15.422;2023-12-22T06:04:03;4.70;99.90
23869;DHT22;12115;47.128;15.422;2023-12-22T06:06:30;4.70;99.90
23869;DHT22;12115;47.128;15.422;2023-12-22T06:08:56;4.70;99.90
23869;DHT22;12115;47.128;15.422;2023-12-22T06:11:22;4.60;99.90
23869;DHT22;12115;47.128;15.422;2023-12-22T06:13:48;4.70;99.90
23869;DHT22;12115;47.128;15.422;2023-12-22T06:16:14;4.70;99.90
23869;DHT22;12115;47.128;15.422;2023-12-22T06:18:41;4.70;99.90
23869;DHT22;12115;47.128;15.422;2023-12-22T06:21:08;4.70;99.90
23869;DHT22;12115;47.128;15.422;2023-12-22T06:23:34;4.70;99.90
23869;DHT22;12115;47.128;15.422;2023-12-22T06:26:07;4.60;99.90
23869;DHT22;12115;47.128;15.422;2023-12-22T06:28:33;4.60;99.90
23869;DHT22;12115;47.128;15.422;2023-12-22T06:31:02;4.60;99.90
23869;DHT22;12115;47.128;15.422;2023-12-22T06:33:29;4.70;99.90
23869;DHT22;12115;47.128;15.422;2023-12-22T06:35:56;4.70;99.90
23869;DHT22;12115;47.128;15.422;2023-12-22T06:38:22;4.70;99.90
23869;DHT22;12115;47.128;15.422;2023-12-22T06:40:48;4.70;99.90
23869;DHT22;12115;47.128;15.422;2023-12-22T06:43:14;4.70;99.90
23869;DHT22;12115;47.128;15.422;2023-12-22T06:45:40;4.70;99.90
23869;DHT22;12115;47.128;15.422;2023-12-22T06:48:07;4.60;99.90
23869;DHT22;12115;47.128;15.422;2023-12-22T06:50:33;4.60;99.90
23869;DHT22;12115;47.128;15.422;2023-12-22T06:52:59;4.60;99.90
23869;DHT22;12115;47.128;15.422;2023-12-22T06:55:36;4.70;99.90
23869;DHT22;12115;47.128;15.422;2023-12-22T06:58:02;4.70;99.90
23869;DHT22;12115;47.128;15.422;2023-12-22T07:00:28;4.70;99.90
23869;DHT22;12115;47.128;15.422;2023-12-22T07:02:55;4.70;99.90
23869;DHT22;12115;47.128;15.422;2023-12-22T07:07:47;4.70;99.90
23869;DHT22;12115;47.128;15.422;2023-12-22T07:10:14;4.80;99.90
23869;DHT22;12115;47.128;15.422;2023-12-22T07:12:40;4.70;99.90
23869;DHT22;12115;47.128;15.422;2023-12-22T07:15:08;4.80;99.90
23869;DHT22;12115;47.128;15.422;2023-12-22T07:17:36;4.80;99.90
23869;DHT22;12115;47.128;15.422;2023-12-22T07:20:03;4.80;99.90
23869;DHT22;12115;47.128;15.422;2023-12-22T07:22:30;4.80;99.90
23869;DHT22;12115;47.128;15.422;2023-12-22T07:24:56;4.80;99.90
23869;DHT22;12115;47.128;15.422;2023-12-22T07:27:24;4.80;99.90
23869;DHT22;12115;47.128;15.422;2023-12-22T07:29:52;4.70;99.90
23869;DHT22;12115;47.128;15.422;2023-12-22T07:32:18;4.70;99.90
23869;DHT22;12115;47.128;15.422;2023-12-22T07:34:44;4.70;99.90
23869;DHT22;12115;47.128;15.422;2023-12-22T07:37:11;4.70;99.90
23869;DHT22;12115;47.128;15.422;2023-12-22T07:39:38;4.70;99.90
23869;DHT22;12115;47.128;15.422;2023-12-22T07:42:04;4.70;99.90
23869;DHT22;12115;47.128;15.422;2023-12-22T07:44:32;4.70;99.90
23869;DHT22;12115;47.128;15.422;2023-12-22T07:46:59;4.70;99.90
23869;DHT22;12115;47.128;15.422;2023-12-22T07:49:28;4.70;99.90
23869;DHT22;12115;47.128;15.422;2023-12-22T07:51:56;4.70;99.90
23869;DHT22;12115;47.128;15.422;2023-12-22T07:54:22;4.70;99.90
23869;DHT22;12115;47.128;15.422;2023-12-22T07:56:50;4.80;99.90
23869;DHT22;12115;47.128;15.422;2023-12-22T07:59:16;4.80;99.90
23869;DHT22;12115;47.128;15.422;2023-12-22T08:01:56;4.70;99.90
23869;DHT22;12115;47.128;15.422;2023-12-22T08:04:22;4.70;99.90
23869;DHT22;12115;47.128;15.422;2023-12-22T08:06:48;4.70;99.90
23869;DHT22;12115;47.128;15.422;2023-12-22T08:09:15;4.70;99.90
23869;DHT22;12115;47.128;15.422;2023-12-22T08:11:41;4.70;99.90
23869;DHT22;12115;47.128;15.422;2023-12-22T08:14:07;4.70;99.90
23869;DHT22;12115;47.128;15.422;2023-12-22T08:16:33;4.70;99.90
23869;DHT22;12115;47.128;15.422;2023-12-22T08:18:59;4.70;99.90
23869;DHT22;12115;47.128;15.422;2023-12-22T08:21:26;4.80;99.90
23869;DHT22;12115;47.128;15.422;2023-12-22T08:24:08;4.80;99.90
23869;DHT22;12115;47.128;15.422;2023-12-22T08:26:37;4.80;99.90
23869;DHT22;12115;47.128;15.422;2023-12-22T08:29:04;4.80;99.90
23869;DHT22;12115;47.128;15.422;2023-12-22T08:31:30;4.70;99.90
23869;DHT22;12115;47.128;15.422;2023-12-22T08:33:56;4.70;99.90
23869;DHT22;12115;47.128;15.422;2023-12-22T08:36:22;4.80;99.90
23869;DHT22;12115;47.128;15.422;2023-12-22T08:38:48;4.80;99.90
23869;DHT22;12115;47.128;15.422;2023-12-22T08:41:15;4.80;99.90
23869;DHT22;12115;47.128;15.422;2023-12-22T08:43:42;4.80;99.90
23869;DHT22;12115;47.128;15.422;2023-12-22T08:46:08;4.80;99.90
23869;DHT22;12115;47.128;15.422;2023-12-22T08:48:35;4.80;99.90
23869;DHT22;12115;47.128;15.422;2023-12-22T08:51:03;4.80;99.90
23869;DHT22;12115;47.128;15.422;2023-12-22T08:53:30;4.70;99.90
23869;DHT22;12115;47.128;15.422;2023-12-22T08:55:59;4.70;99.90
23869;DHT22;12115;47.128;15.422;2023-12-22T08:58:26;4.70;99.90
23869;DHT22;12115;47.128;15.422;2023-12-22T09:00:52;4.70;99.90
23869;DHT22;12115;47.128;15.422;2023-12-22T09:03:19;4.80;99.90
23869;DHT22;12115;47.128;15.422;2023-12-22T09:05:45;4.80;99.90
23869;DHT22;12115;47.128;15.422;2023-12-22T09:08:11;4.70;99.90
23869;DHT22;12115;47.128;15.422;2023-12-22T09:10:37;4.70;99.90
23869;DHT22;12115;47.128;15.422;2023-12-22T09:13:03;4.70;99.90
23869;DHT22;12115;47.128;15.422;2023-12-22T09:15:30;4.70;99.90
23869;DHT22;12115;47.128;15.422;2023-12-22T09:17:56;4.80;99.90
23869;DHT22;12115;47.128;15.422;2023-12-22T09:20:22;4.80;99.90
23869;DHT22;12115;47.128;15.422;2023-12-22T09:22:48;4.70;99.90
23869;DHT22;12115;47.128;15.422;2023-12-22T09:25:15;4.80;99.90
23869;DHT22;12115;47.128;15.422;2023-12-22T09:27:41;4.80;99.90
23869;DHT22;12115;47.128;15.422;2023-12-22T09:30:07;4.80;99.90
23869;DHT22;12115;47.128;15.422;2023-12-22T09:32:34;4.80;99.90
23869;DHT22;12115;47.128;15.422;2023-12-22T09:35:00;4.70;99.90
23869;DHT22;12115;47.128;15.422;2023-12-22T09:37:27;4.80;99.90
23869;DHT22;12115;47.128;15.422;2023-12-22T09:39:53;4.70;99.90
23869;DHT22;12115;47.128;15.422;2023-12-22T09:42:21;4.80;99.90
23869;DHT22;12115;47.128;15.422;2023-12-22T09:44:48;4.80;99.90
23869;DHT22;12115;47.128;15.422;2023-12-22T09:47:15;4.90;99.90
23869;DHT22;12115;47.128;15.422;2023-12-22T09:49:41;4.90;99.90
23869;DHT22;12115;47.128;15.422;2023-12-22T09:52:08;4.80;99.90
23869;DHT22;12115;47.128;15.422;2023-12-22T09:54:36;4.90;99.90
23869;DHT22;12115;47.128;15.422;2023-12-22T09:57:03;4.90;99.90
23869;DHT22;12115;47.128;15.422;2023-12-22T09:59:46;4.80;99.90
23869;DHT22;12115;47.128;15.422;2023-12-22T10:02:13;4.90;99.90
23869;DHT22;12115;47.128;15.422;2023-12-22T10:04:39;4.90;99.90
23869;DHT22;12115;47.128;15.422;2023-12-22T10:07:05;4.90;99.90
23869;DHT22;12115;47.128;15.422;2023-12-22T10:09:32;5.00;99.90
23869;DHT22;12115;47.128;15.422;2023-12-22T10:11:59;4.90;99.90
23869;DHT22;12115;47.128;15.422;2023-12-22T10:14:25;4.90;99.90
23869;DHT22;12115;47.128;15.422;2023-12-22T10:16:52;4.90;99.90
23869;DHT22;12115;47.128;15.422;2023-12-22T10:19:19;5.00;99.90
23869;DHT22;12115;47.128;15.422;2023-12-22T10:21:46;5.00;99.90
23869;DHT22;12115;47.128;15.422;2023-12-22T10:26:58;4.90;99.90
23869;DHT22;12115;47.128;15.422;2023-12-22T10:29:24;4.90;99.90
23869;DHT22;12115;47.128;15.422;2023-12-22T10:31:51;4.90;99.90
23869;DHT22;12115;47.128;15.422;2023-12-22T10:34:17;4.90;99.90
23869;DHT22;12115;47.128;15.422;2023-12-22T10:36:43;4.90;99.90
23869;DHT22;12115;47.128;15.422;2023-12-22T10:39:10;5.00;99.90
23869;DHT22;12115;47.128;15.422;2023-12-22T10:41:36;5.00;99.90
23869;DHT22;12115;47.128;15.422;2023-12-22T10:44:02;5.00;99.90
23869;DHT22;12115;47.128;15.422;2023-12-22T10:46:30;5.00;99.90
23869;DHT22;12115;47.128;15.422;2023-12-22T10:48:57;5.20;99.90
23869;DHT22;12115;47.128;15.422;2023-12-22T10:51:23;5.10;99.90
23869;DHT22;12115;47.128;15.422;2023-12-22T10:53:50;5.00;99.90
23869;DHT22;12115;47.128;15.422;2023-12-22T10:56:17;5.00;99.90
23869;DHT22;12115;47.128;15.422;2023-12-22T10:58:43;5.00;99.90
23869;DHT22;12115;47.128;15.422;2023-12-22T11:01:11;5.10;99.90
23869;DHT22;12115;47.128;15.422;2023-12-22T11:03:40;5.10;99.90
23869;DHT22;12115;47.128;15.422;2023-12-22T11:06:10;5.10;99.90
23869;DHT22;12115;47.128;15.422;2023-12-22T11:08:38;5.10;99.90
23869;DHT22;12115;47.128;15.422;2023-12-22T11:11:08;5.20;99.90
23869;DHT22;12115;47.128;15.422;2023-12-22T11:13:40;5.20;99.90
23869;DHT22;12115;47.128;15.422;2023-12-22T11:16:06;5.20;99.90
23869;DHT22;12115;47.128;15.422;2023-12-22T11:18:33;5.20;99.90
23869;DHT22;12115;47.128;15.422;2023-12-22T11:21:00;5.30;99.90
23869;DHT22;12115;47.128;15.422;2023-12-22T11:23:28;5.30;99.90
23869;DHT22;12115;47.128;15.422;2023-12-22T11:25:56;5.20;99.90
23869;DHT22;12115;47.128;15.422;2023-12-22T11:28:24;5.20;99.90
23869;DHT22;12115;47.128;15.422;2023-12-22T11:30:51;5.30;99.90
23869;DHT22;12115;47.128;15.422;2023-12-22T11:33:21;5.30;99.90
23869;DHT22;12115;47.128;15.422;2023-12-22T11:35:49;5.30;99.90
23869;DHT22;12115;47.128;15.422;2023-12-22T11:38:16;5.30;99.90
23869;DHT22;12115;47.128;15.422;2023-12-22T11:40:42;5.30;99.90
23869;DHT22;12115;47.128;15.422;2023-12-22T11:43:08;5.30;99.90
23869;DHT22;12115;47.128;15.422;2023-12-22T11:45:36;5.30;99.90
23869;DHT22;12115;47.128;15.422;2023-12-22T11:48:08;5.30;99.90
23869;DHT22;12115;47.128;15.422;2023-12-22T11:50:36;5.30;99.90
23869;DHT22;12115;47.128;15.422;2023-12-22T11:53:18;5.30;99.90
23869;DHT22;12115;47.128;15.422;2023-12-22T11:55:58;5.20;99.90
23869;DHT22;12115;47.128;15.422;2023-12-22T12:01:05;5.20;99.90
23869;DHT22;12115;47.128;15.422;2023-12-22T12:03:32;5.30;99.90
23869;DHT22;12115;47.128;15.422;2023-12-22T12:08:40;5.30;99.90
23869;DHT22;12115;47.128;15.422;2023-12-22T12:11:06;5.20;99.90
23869;DHT22;12115;47.128;15.422;2023-12-22T12:13:33;5.30;99.90
23869;DHT22;12115;47.128;15.422;2023-12-22T12:16:00;5.30;99.90
23869;DHT22;12115;47.128;15.422;2023-12-22T12:18:27;5.30;99.90
23869;DHT22;12115;47.128;15.422;2023-12-22T12:20:54;5.30;99.90
23869;DHT22;12115;47.128;15.422;2023-12-22T12:23:20;5.30;99.90
23869;DHT22;12115;47.128;15.422;2023-12-22T12:25:47;5.30;99.90
23869;DHT22;12115;47.128;15.422;2023-12-22T12:28:13;5.30;99.90
23869;DHT22;12115;47.128;15.422;2023-12-22T12:30:40;5.40;99.90
23869;DHT22;12115;47.128;15.422;2023-12-22T12:33:07;5.40;99.90
23869;DHT22;12115;47.128;15.422;2023-12-22T12:35:35;5.40;99.90
23869;DHT22;12115;47.128;15.422;2023-12-22T12:38:04;5.40;99.90
23869;DHT22;12115;47.128;15.422;2023-12-22T12:40:30;5.40;99.90
23869;DHT22;12115;47.128;15.422;2023-12-22T12:42:58;5.40;99.90
23869;DHT22;12115;47.128;15.422;2023-12-22T12:45:25;5.40;99.90
23869;DHT22;12115;47.128;15.422;2023-12-22T12:47:55;5.40;99.90
23869;DHT22;12115;47.128;15.422;2023-12-22T12:50:21;5.40;99.90
23869;DHT22;12115;47.128;15.422;2023-12-22T12:52:48;5.40;99.90
23869;DHT22;12115;47.128;15.422;2023-12-22T12:55:19;5.40;99.90
23869;DHT22;12115;47.128;15.422;2023-12-22T12:57:49;5.40;99.90
23869;DHT22;12115;47.128;15.422;2023-12-22T13:00:23;5.40;99.90
23869;DHT22;12115;47.128;15.422;2023-12-22T13:02:49;5.30;99.90
23869;DHT22;12115;47.128;15.422;2023-12-22T13:05:22;5.30;99.90
23869;DHT22;12115;47.128;15.422;2023-12-22T13:07:49;5.30;99.90
23869;DHT22;12115;47.128;15.422;2023-12-22T13:10:24;5.30;99.90
23869;DHT22;12115;47.128;15.422;2023-12-22T13:12:51;5.30;99.90
23869;DHT22;12115;47.128;15.422;2023-12-22T13:15:20;5.30;99.90
23869;DHT22;12115;47.128;15.422;2023-12-22T13:17:47;5.30;99.90
23869;DHT22;12115;47.128;15.422;2023-12-22T13:20:14;5.30;99.90
23869;DHT22;12115;47.128;15.422;2023-12-22T13:22:40;5.30;99.90
23869;DHT22;12115;47.128;15.422;2023-12-22T13:25:06;5.30;99.90
23869;DHT22;12115;47.128;15.422;2023-12-22T13:27:43;5.30;99.90
23869;DHT22;12115;47.128;15.422;2023-12-22T13:30:09;5.30;99.90
23869;DHT22;12115;47.128;15.422;2023-12-22T13:32:36;5.30;99.90
23869;DHT22;12115;47.128;15.422;2023-12-22T13:35:02;5.20;99.90
23869;DHT22;12115;47.128;15.422;2023-12-22T13:37:28;5.20;99.90
23869;DHT22;12115;47.128;15.422;2023-12-22T13:39:56;5.20;99.90
23869;DHT22;12115;47.128;15.422;2023-12-22T13:42:23;5.20;99.90
23869;DHT22;12115;47.128;15.422;2023-12-22T13:44:50;5.20;99.90
23869;DHT22;12115;47.128;15.422;2023-12-22T13:47:18;5.30;99.90
23869;DHT22;12115;47.128;15.422;2023-12-22T13:49:45;5.30;99.90
23869;DHT22;12115;47.128;15.422;2023-12-22T13:52:27;5.20;99.90
23869;DHT22;12115;47.128;15.422;2023-12-22T13:54:54;5.20;99.90
23869;DHT22;12115;47.128;15.422;2023-12-22T13:57:22;5.20;99.90
23869;DHT22;12115;47.128;15.422;2023-12-22T13:59:52;5.20;99.90
23869;DHT22;12115;47.128;15.422;2023-12-22T14:02:24;5.20;99.90
23869;DHT22;12115;47.128;15.422;2023-12-22T14:04:51;5.20;99.90
23869;DHT22;12115;47.128;15.422;2023-12-22T14:07:18;5.20;99.90
23869;DHT22;12115;47.128;15.422;2023-12-22T14:09:44;5.20;99.90
23869;DHT22;12115;47.128;15.422;2023-12-22T14:12:10;5.10;99.90
23869;DHT22;12115;47.128;15.422;2023-12-22T14:14:43;5.10;99.90
23869;DHT22;12115;47.128;15.422;2023-12-22T14:17:11;5.20;99.90
23869;DHT22;12115;47.128;15.422;2023-12-22T14:19:37;5.10;99.90
23869;DHT22;12115;47.128;15.422;2023-12-22T14:22:03;5.10;99.90
23869;DHT22;12115;47.128;15.422;2023-12-22T14:24:29;5.10;99.90
23869;DHT22;12115;47.128;15.422;2023-12-22T14:26:56;5.10;99.90
23869;DHT22;12115;47.128;15.422;2023-12-22T14:29:22;5.20;99.90
23869;DHT22;12115;47.128;15.422;2023-12-22T14:31:49;5.10;99.90
23869;DHT22;12115;47.128;15.422;2023-12-22T14:34:15;5.10;99.90
23869;DHT22;12115;47.128;15.422;2023-12-22T14:36:43;5.10;99.90
23869;DHT22;12115;47.128;15.422;2023-12-22T14:39:10;5.00;99.90
23869;DHT22;12115;47.128;15.422;2023-12-22T14:41:41;5.00;99.90
23869;DHT22;12115;47.128;15.422;2023-12-22T14:44:08;5.00;99.90
23869;DHT22;12115;47.128;15.422;2023-12-22T14:46:38;5.00;99.90
23869;DHT22;12115;47.128;15.422;2023-12-22T14:49:04;5.00;99.90
23869;DHT22;12115;47.128;15.422;2023-12-22T14:51:34;5.00;99.90
23869;DHT22;12115;47.128;15.422;2023-12-22T14:54:00;4.90;99.90
23869;DHT22;12115;47.128;15.422;2023-12-22T14:56:27;4.90;99.90
23869;DHT22;12115;47.128;15.422;2023-12-22T14:58:53;4.90;99.90
23869;DHT22;12115;47.128;15.422;2023-12-22T15:01:19;4.90;99.90
23869;DHT22;12115;47.128;15.422;2023-12-22T15:03:45;4.90;99.90
23869;DHT22;12115;47.128;15.422;2023-12-22T15:06:12;4.90;99.90
23869;DHT22;12115;47.128;15.422;2023-12-22T15:08:40;4.90;99.90
23869;DHT22;12115;47.128;15.422;2023-12-22T15:11:06;5.00;99.90
23869;DHT22;12115;47.128;15.422;2023-12-22T15:13:33;4.90;99.90
23869;DHT22;12115;47.128;15.422;2023-12-22T15:16:04;5.00;99.90
23869;DHT22;12115;47.128;15.422;2023-12-22T15:18:30;4.90;99.90
23869;DHT22;12115;47.128;15.422;2023-12-22T15:20:56;4.90;99.90
23869;DHT22;12115;47.128;15.422;2023-12-22T15:23:22;4.90;99.90
23869;DHT22;12115;47.128;15.422;2023-12-22T15:25:49;4.90;99.90
23869;DHT22;12115;47.128;15.422;2023-12-22T15:28:15;5.00;99.90
23869;DHT22;12115;47.128;15.422;2023-12-22T15:30:41;4.90;99.90
23869;DHT22;12115;47.128;15.422;2023-12-22T15:33:08;5.00;99.90
23869;DHT22;12115;47.128;15.422;2023-12-22T15:35:34;4.90;99.90
23869;DHT22;12115;47.128;15.422;2023-12-22T15:38:00;4.90;99.90
23869;DHT22;12115;47.128;15.422;2023-12-22T15:40:26;4.90;99.90
23869;DHT22;12115;47.128;15.422;2023-12-22T15:42:53;4.90;99.90
23869;DHT22;12115;47.128;15.422;2023-12-22T15:45:19;4.90;99.90
23869;DHT22;12115;47.128;15.422;2023-12-22T15:47:46;4.90;99.90
23869;DHT22;12115;47.128;15.422;2023-12-22T15:50:12;4.90;99.90
23869;DHT22;12115;47.128;15.422;2023-12-22T15:52:38;4.90;99.90
23869;DHT22;12115;47.128;15.422;2023-12-22T15:55:04;4.90;99.90
23869;DHT22;12115;47.128;15.422;2023-12-22T15:57:30;4.90;99.90
23869;DHT22;12115;47.128;15.422;2023-12-22T15:59:57;4.90;99.90